Avoca, Michigan
Current Conditions -  °F | °C
As of 6:36 AM on Friday 24 Oct 2014 (Local Time) from KPHN Reporting Station
Haze Haze  
Wind Chill: 30°   Ceiling: Unl
Heat Index: 30°   Visibility: 4mi
Dew Point: 30°   Wind: 0mph
Humidity: 100%   Direction: NA
Pressure: 30.08"   Gusts: NA
Location:  43.06°N, 82.69°W
Report Text: KPHN 241036Z AUTO 00000KT 4SM BR CLR M01/M01 A3008 RMK AO2
Loading
Personal Weather Stations






























Interactive Weather Map
Tropical Storm Tracking
New forecast layout! Learn more

10-Day Weather Forecast

Advertisements
Track Severe Weather on mobile